Time;durP1;ratioP1;P1;durP2;ratioP2;P2;SDS_P1;SDS_P2;PMS_P1;PMS_P2;Temp;Humidity;BMP_temperature;BMP_pressure;BME280_temperature;BME280_humidity;BME280_pressure;Samples;Min_cycle;Max_cycle;Signal;HPM_P1;HPM_P2
2024/02/12 00:02:18;;;;;;;0.85;0.20;;;;;;;2.59;100.00;98658.44;4922494;29;20086;-93
2024/02/12 00:04:47;;;;;;;1.85;0.47;;;;;;;2.61;100.00;98656.50;4937441;29;20474;-93
2024/02/12 00:07:14;;;;;;;1.35;0.40;;;;;;;2.58;100.00;98654.97;4936811;29;20057;-93
2024/02/12 00:09:40;;;;;;;1.38;0.32;;;;;;;2.55;100.00;98646.63;4914840;29;20117;-93
2024/02/12 00:12:08;;;;;;;0.60;0.40;;;;;;;2.52;100.00;98655.53;4929592;29;20444;-93
2024/02/12 00:14:36;;;;;;;1.02;0.30;;;;;;;2.53;100.00;98654.59;4920745;28;20043;-93
2024/02/12 00:17:09;;;;;;;1.08;0.40;;;;;;;2.46;100.00;98658.69;4917717;29;20036;-94
2024/02/12 00:19:35;;;;;;;1.95;0.45;;;;;;;2.51;100.00;98656.50;4932479;28;20130;-94
2024/02/12 00:22:01;;;;;;;1.05;0.40;;;;;;;2.50;100.00;98659.25;4927122;28;20038;-92
2024/02/12 00:24:28;;;;;;;1.05;0.40;;;;;;;2.46;100.00;98672.56;4925250;29;20513;-93
2024/02/12 00:27:00;;;;;;;2.35;0.50;;;;;;;2.44;100.00;98674.47;4933873;28;20078;-93
2024/02/12 00:29:27;;;;;;;2.40;0.50;;;;;;;2.48;100.00;98670.63;4918041;28;20561;-93
2024/02/12 00:31:58;;;;;;;0.60;0.55;;;;;;;2.52;100.00;98678.16;4915307;29;20505;-93
2024/02/12 00:34:26;;;;;;;5.22;0.47;;;;;;;2.53;100.00;98685.88;4934742;28;20124;-92
2024/02/12 00:36:52;;;;;;;2.65;0.40;;;;;;;2.54;100.00;98684.91;4917732;29;20074;-93
2024/02/12 00:39:19;;;;;;;1.45;0.70;;;;;;;2.56;100.00;98677.78;4947564;28;20054;-93
2024/02/12 00:41:50;;;;;;;3.92;0.70;;;;;;;2.52;100.00;98679.00;4927105;29;20034;-93
2024/02/12 00:44:17;;;;;;;2.28;0.80;;;;;;;2.48;100.00;98688.88;4925691;28;20039;-93
2024/02/12 00:46:47;;;;;;;1.95;0.85;;;;;;;2.41;100.00;98686.94;4915564;29;20034;-94
2024/02/12 00:49:16;;;;;;;2.00;0.60;;;;;;;2.37;100.00;98686.41;4931443;28;20028;-92
2024/02/12 00:51:42;;;;;;;1.55;0.40;;;;;;;2.33;100.00;98693.66;4925187;29;20031;-93
2024/02/12 00:54:10;;;;;;;3.35;0.50;;;;;;;2.27;100.00;98690.78;4926348;28;20164;-93
2024/02/12 00:56:37;;;;;;;2.55;0.50;;;;;;;2.21;100.00;98692.16;4915127;29;20047;-93
2024/02/12 00:59:04;;;;;;;1.27;0.60;;;;;;;2.12;100.00;98691.16;4939573;28;20490;-93
2024/02/12 01:01:38;;;;;;;1.70;0.68;;;;;;;2.19;100.00;98712.28;4922217;29;20048;-93
2024/02/12 01:04:07;;;;;;;1.40;0.43;;;;;;;2.11;100.00;98707.75;4933424;28;20501;-93
2024/02/12 01:06:34;;;;;;;1.65;0.60;;;;;;;2.05;100.00;98705.69;4932458;29;20041;-93
2024/02/12 01:09:02;;;;;;;2.35;0.68;;;;;;;2.09;100.00;98712.25;4970121;28;20043;-93
2024/02/12 01:11:29;;;;;;;4.20;1.00;;;;;;;2.01;100.00;98710.31;4965306;28;20098;-93
2024/02/12 01:13:58;;;;;;;1.45;0.60;;;;;;;2.07;100.00;98714.19;4975137;28;20046;-93
2024/02/12 01:16:24;;;;;;;1.92;0.65;;;;;;;2.01;100.00;98714.72;4942091;28;20550;-93
2024/02/12 01:18:53;;;;;;;1.50;0.65;;;;;;;2.05;100.00;98719.53;4962657;28;20054;-93
2024/02/12 01:21:20;;;;;;;3.55;0.90;;;;;;;1.98;100.00;98724.44;4958085;28;20126;-93
2024/02/12 01:23:46;;;;;;;1.27;0.80;;;;;;;1.97;100.00;98729.78;4929782;28;20038;-94
2024/02/12 01:26:15;;;;;;;4.72;0.90;;;;;;;2.00;100.00;98726.94;4947148;28;20038;-94
2024/02/12 01:28:41;;;;;;;1.92;0.80;;;;;;;2.01;100.00;98733.78;4933717;28;20030;-94
2024/02/12 01:31:15;;;;;;;1.55;0.90;;;;;;;2.06;100.00;98729.00;4947267;28;20922;-93
2024/02/12 01:33:48;;;;;;;3.15;0.73;;;;;;;2.13;100.00;98731.06;4956232;28;20489;-94
2024/02/12 01:36:16;;;;;;;1.63;0.60;;;;;;;2.08;100.00;98723.66;4959561;28;20046;-93
2024/02/12 01:38:43;;;;;;;1.13;0.60;;;;;;;2.03;100.00;98712.78;4946969;28;20043;-94
2024/02/12 01:41:09;;;;;;;2.05;0.63;;;;;;;2.08;100.00;98727.09;4940564;29;20043;-93
2024/02/12 01:43:40;;;;;;;1.45;0.63;;;;;;;2.14;100.00;98730.09;4953381;28;20038;-93
2024/02/12 01:46:14;;;;;;;1.35;0.57;;;;;;;2.09;100.00;98733.94;4970599;28;20115;-94
2024/02/12 01:48:40;;;;;;;4.57;1.00;;;;;;;2.10;100.00;98746.00;4975594;28;20129;-94
2024/02/12 01:51:11;;;;;;;2.78;0.60;;;;;;;2.16;100.00;98743.84;4959792;28;20058;-93
2024/02/12 01:53:39;;;;;;;3.47;0.60;;;;;;;2.14;100.00;98745.75;4975261;28;20043;-94
2024/02/12 01:56:15;;;;;;;1.77;0.77;;;;;;;2.12;100.00;98750.28;4976543;28;20043;-94
2024/02/12 01:58:42;;;;;;;3.75;0.77;;;;;;;2.13;100.00;98751.94;4940901;28;20042;-95
2024/02/12 02:01:15;;;;;;;0.70;0.60;;;;;;;2.18;100.00;98760.19;4966909;28;20137;-94
2024/02/12 02:03:50;;;;;;;2.70;0.70;;;;;;;2.22;100.00;98761.56;4918525;29;20047;-94
2024/02/12 02:06:17;;;;;;;4.53;0.75;;;;;;;2.20;100.00;98769.50;4938238;28;20042;-94
2024/02/12 02:08:44;;;;;;;4.80;0.90;;;;;;;2.14;100.00;98764.84;4951360;28;20041;-94
2024/02/12 02:11:16;;;;;;;7.13;1.02;;;;;;;2.12;100.00;98771.94;4928354;28;20039;-94
2024/02/12 02:13:43;;;;;;;1.58;0.60;;;;;;;2.14;100.00;98762.22;4946150;29;20038;-94
2024/02/12 02:16:32;;;;;;;2.55;0.70;;;;;;;2.15;100.00;98783.91;4957358;28;20528;-94
2024/02/12 02:19:01;;;;;;;2.28;0.52;;;;;;;2.17;100.00;98780.22;4943512;28;20022;-93
2024/02/12 02:21:52;;;;;;;2.38;0.73;;;;;;;2.16;100.00;98777.72;4957624;28;20034;-94
2024/02/12 02:24:18;;;;;;;2.75;0.77;;;;;;;2.14;100.00;98780.47;4950531;28;20054;-94
2024/02/12 02:26:44;;;;;;;1.73;0.50;;;;;;;2.12;100.00;98784.97;4952930;28;20031;-94
2024/02/12 02:29:12;;;;;;;1.13;0.55;;;;;;;2.05;100.00;98776.03;4945680;28;20070;-93
2024/02/12 02:31:38;;;;;;;1.75;0.75;;;;;;;2.09;100.00;98774.81;4946657;28;20834;-94
2024/02/12 02:34:04;;;;;;;6.13;0.77;;;;;;;2.07;100.00;98782.75;4956813;28;20089;-94
2024/02/12 02:36:30;;;;;;;1.77;0.52;;;;;;;2.08;100.00;98789.66;4934358;28;20540;-94
2024/02/12 02:39:01;;;;;;;1.35;0.40;;;;;;;2.02;100.00;98782.34;4926131;28;20490;-94
2024/02/12 02:41:28;;;;;;;3.58;1.08;;;;;;;1.99;100.00;98787.81;4925968;28;20417;-94
2024/02/12 02:43:54;;;;;;;2.60;0.88;;;;;;;2.00;100.00;98794.69;4967321;28;20049;-94
2024/02/12 02:46:26;;;;;;;1.33;0.50;;;;;;;2.00;100.00;98789.47;4942599;28;20038;-94
2024/02/12 02:48:53;;;;;;;2.70;0.75;;;;;;;1.91;100.00;98798.88;4937423;28;20035;-94
2024/02/12 02:51:26;;;;;;;3.63;0.57;;;;;;;1.96;100.00;98801.94;4926563;28;20030;-94
2024/02/12 02:53:56;;;;;;;2.03;0.80;;;;;;;1.85;100.00;98795.00;4941872;28;20142;-95
2024/02/12 02:56:23;;;;;;;2.28;0.57;;;;;;;1.88;100.00;98798.31;4955778;28;20543;-94
2024/02/12 02:58:50;;;;;;;2.83;0.70;;;;;;;1.89;100.00;98802.56;4923230;28;20039;-94
2024/02/12 03:01:19;;;;;;;1.65;0.95;;;;;;;1.90;100.00;98802.44;4942533;28;20035;-94
2024/02/12 03:03:48;;;;;;;4.60;0.60;;;;;;;1.88;100.00;98811.34;4938174;28;20073;-93
2024/02/12 03:06:14;;;;;;;1.40;0.47;;;;;;;1.82;100.00;98800.47;4939658;28;20097;-94
2024/02/12 03:08:40;;;;;;;3.97;0.80;;;;;;;1.83;100.00;98799.53;4923683;28;20046;-94
2024/02/12 03:11:06;;;;;;;1.67;0.55;;;;;;;1.85;100.00;98815.84;4924747;28;21408;-94
2024/02/12 03:13:34;;;;;;;4.25;0.60;;;;;;;1.82;100.00;98807.47;4938031;28;20039;-94
2024/02/12 03:16:03;;;;;;;2.72;0.60;;;;;;;1.80;100.00;98812.81;4941441;28;20035;-94
2024/02/12 03:18:30;;;;;;;3.50;0.90;;;;;;;1.85;100.00;98812.41;4948637;28;20082;-94
2024/02/12 03:20:56;;;;;;;4.30;0.50;;;;;;;1.88;100.00;98821.78;4939880;28;20066;-94
2024/02/12 03:23:22;;;;;;;2.50;0.63;;;;;;;1.87;100.00;98820.94;4952237;28;20621;-94
2024/02/12 03:25:50;;;;;;;4.28;0.68;;;;;;;1.86;100.00;98830.53;4924871;28;20078;-95
2024/02/12 03:28:16;;;;;;;3.33;0.80;;;;;;;1.79;100.00;98816.38;4940916;28;20038;-94
2024/02/12 03:30:43;;;;;;;3.00;0.75;;;;;;;1.76;100.00;98814.03;4924549;28;20474;-95
2024/02/12 03:33:09;;;;;;;2.55;0.70;;;;;;;1.84;100.00;98827.25;4931247;28;20069;-94
2024/02/12 03:35:35;;;;;;;2.88;0.75;;;;;;;1.79;100.00;98829.41;4928789;28;20038;-95
2024/02/12 03:38:04;;;;;;;2.35;0.68;;;;;;;1.72;100.00;98828.28;4946607;28;20030;-95
2024/02/12 03:40:32;;;;;;;2.60;0.80;;;;;;;1.71;100.00;98834.41;4957822;28;20034;-95
2024/02/12 03:42:58;;;;;;;3.72;1.02;;;;;;;1.68;100.00;98827.69;4922244;28;20085;-95
2024/02/12 03:45:24;;;;;;;2.72;0.70;;;;;;;1.70;100.00;98830.16;4920657;28;20075;-94
2024/02/12 03:47:59;;;;;;;1.85;0.90;;;;;;;1.64;100.00;98841.09;4937449;28;20031;-95
2024/02/12 04:01:30;;;;;;;1.17;0.50;;;;;;;1.68;100.00;98853.72;4961103;28;20038;-95
2024/02/12 04:03:59;;;;;;;1.73;0.60;;;;;;;1.63;100.00;98842.03;4940147;28;20039;-95
2024/02/12 04:06:25;;;;;;;2.58;0.80;;;;;;;1.67;100.00;98849.47;4949808;28;20038;-94
2024/02/12 04:08:51;;;;;;;4.35;0.90;;;;;;;1.66;100.00;98849.59;4955647;28;20046;-95
2024/02/12 04:11:17;;;;;;;2.63;0.80;;;;;;;1.64;100.00;98847.09;4931153;28;20049;-95
2024/02/12 04:13:52;;;;;;;1.02;0.68;;;;;;;1.67;100.00;98851.25;4941675;28;20049;-95
2024/02/12 04:16:24;;;;;;;3.10;0.70;;;;;;;1.64;100.00;98852.31;4960552;28;20192;-95
2024/02/12 04:18:50;;;;;;;4.47;1.10;;;;;;;1.63;100.00;98857.66;4932228;28;20549;-95
2024/02/12 04:21:30;;;;;;;1.38;0.73;;;;;;;1.67;100.00;98859.06;4946974;28;20042;-96
2024/02/12 04:24:03;;;;;;;6.97;0.93;;;;;;;1.61;100.00;98858.63;4953145;28;20061;-95
2024/02/12 04:26:42;;;;;;;5.55;0.82;;;;;;;1.60;100.00;98856.13;4931595;28;20042;-95
2024/02/12 04:29:18;;;;;;;3.50;0.93;;;;;;;1.56;100.00;98865.97;4956321;28;20043;-95
2024/02/12 04:31:44;;;;;;;3.47;0.70;;;;;;;1.42;100.00;98863.69;4950173;29;20051;-94
2024/02/12 04:34:13;;;;;;;3.65;1.08;;;;;;;1.37;100.00;98861.44;4937955;28;20039;-94
2024/02/12 04:36:44;;;;;;;4.78;0.60;;;;;;;1.36;100.00;98878.00;4921511;28;20117;-94
2024/02/12 04:39:16;;;;;;;3.88;0.95;;;;;;;1.28;100.00;98870.81;4934585;28;20493;-95
2024/02/12 04:41:44;;;;;;;4.97;0.65;;;;;;;1.22;100.00;98877.34;4959767;28;20126;-94
2024/02/12 04:44:18;;;;;;;2.92;0.68;;;;;;;1.19;100.00;98876.78;4943031;28;20059;-95
2024/02/12 04:46:48;;;;;;;5.63;1.30;;;;;;;1.22;100.00;98879.13;4932980;28;20039;-95
2024/02/12 04:49:14;;;;;;;6.30;1.00;;;;;;;1.28;100.00;98885.59;4930285;28;20518;-95
2024/02/12 04:51:40;;;;;;;5.18;0.80;;;;;;;1.30;100.00;98878.50;4928096;29;20140;-95
2024/02/12 04:54:10;;;;;;;1.75;0.68;;;;;;;1.20;100.00;98881.00;4938369;29;20106;-94
2024/02/12 04:56:38;;;;;;;7.32;0.70;;;;;;;1.11;100.00;98872.97;4951444;28;20038;-94
2024/02/12 04:59:25;;;;;;;1.58;0.50;;;;;;;1.26;100.00;98887.53;4927640;28;20088;-95
2024/02/12 05:01:52;;;;;;;;;;;;;;;1.22;100.00;98892.13;4931980;28;20504;-95
2024/02/12 05:04:17;;;;;;;;;;;;;;;1.22;100.00;98889.53;4960295;28;19956;-95
2024/02/12 05:06:45;;;;;;;3.13;0.70;;;;;;;1.21;100.00;98899.13;4941219;29;19965;-95
2024/02/12 05:09:11;;;;;;;5.15;0.73;;;;;;;1.20;100.00;98904.44;4960029;28;20043;-95
2024/02/12 05:11:37;;;;;;;2.72;0.60;;;;;;;1.20;100.00;98907.03;4930981;28;20069;-95
2024/02/12 05:14:04;;;;;;;7.05;0.70;;;;;;;1.14;100.00;98905.75;4956419;28;20039;-94
2024/02/12 05:16:32;;;;;;;5.65;0.65;;;;;;;1.14;100.00;98908.38;4932010;28;20656;-95
2024/02/12 05:24:47;;;;;;;6.82;1.08;;;;;;;1.08;100.00;98927.88;4897085;29;20180;-94
2024/02/12 05:27:13;;;;;;;3.28;0.85;;;;;;;1.11;100.00;98929.44;4904377;29;20046;-95
2024/02/12 05:29:40;;;;;;;4.75;0.93;;;;;;;1.14;100.00;98926.59;4897488;28;20055;-95
2024/02/12 05:32:07;;;;;;;3.85;0.77;;;;;;;1.14;100.00;98934.41;4928697;28;20042;-95
2024/02/12 05:34:33;;;;;;;1.58;0.80;;;;;;;1.08;100.00;98933.09;4943703;28;20489;-95
2024/02/12 05:36:58;;;;;;;7.55;0.88;;;;;;;1.08;100.00;98930.47;4915299;28;20035;-96
2024/02/12 05:39:25;;;;;;;3.85;0.70;;;;;;;1.15;100.00;98937.84;4939175;28;20031;-95
2024/02/12 05:41:51;;;;;;;1.73;0.50;;;;;;;1.17;100.00;98941.97;4951815;28;20043;-95
2024/02/12 05:44:18;;;;;;;2.72;0.65;;;;;;;1.20;100.00;98946.91;4925555;28;20122;-96
2024/02/12 05:46:44;;;;;;;5.60;0.95;;;;;;;1.21;100.00;98947.75;4939679;28;20041;-95
2024/02/12 05:49:13;;;;;;;7.45;0.90;;;;;;;1.19;100.00;98947.03;4942430;28;20097;-95
2024/02/12 05:51:39;;;;;;;2.95;0.70;;;;;;;1.17;100.00;98943.72;4944546;28;20043;-95
2024/02/12 05:54:06;;;;;;;4.10;0.90;;;;;;;1.15;100.00;98958.66;4923434;29;20051;-96
2024/02/12 05:56:31;;;;;;;1.55;0.63;;;;;;;1.13;100.00;98944.94;4934459;28;20109;-95
2024/02/12 05:58:57;;;;;;;3.38;0.75;;;;;;;1.16;100.00;98957.69;4957964;28;20062;-95
2024/02/12 06:01:25;;;;;;;7.03;0.82;;;;;;;1.17;100.00;98956.75;4956199;28;20073;-95
2024/02/12 06:03:51;;;;;;;3.25;0.60;;;;;;;1.21;100.00;98968.59;4945306;28;20069;-95
2024/02/12 06:06:18;;;;;;;4.95;0.93;;;;;;;1.21;100.00;98974.59;4954773;28;20520;-96
2024/02/12 06:08:44;;;;;;;7.25;1.77;;;;;;;1.15;100.00;98961.25;4954590;28;20516;-95
2024/02/12 06:11:10;;;;;;;5.93;1.48;;;;;;;1.18;100.00;98961.00;4942042;28;20133;-91
2024/02/12 06:13:36;;;;;;;5.70;2.15;;;;;;;1.18;100.00;98971.44;4923502;28;20433;-90
2024/02/12 06:16:03;;;;;;;5.05;1.00;;;;;;;1.09;100.00;98965.16;4928845;29;20035;-96
2024/02/12 06:18:29;;;;;;;6.78;0.88;;;;;;;1.08;100.00;98977.31;4935184;28;20121;-95
2024/02/12 06:20:55;;;;;;;6.13;0.60;;;;;;;1.01;100.00;98972.72;4940509;28;20073;-96
2024/02/12 06:23:21;;;;;;;4.47;0.70;;;;;;;1.06;100.00;98976.63;4921308;28;20094;-96
2024/02/12 06:25:53;;;;;;;0.77;0.30;;;;;;;1.07;100.00;98978.28;4922867;29;20039;-95
2024/02/12 06:28:19;;;;;;;1.95;0.63;;;;;;;1.06;100.00;98988.81;4930680;28;20074;-96
2024/02/12 06:30:46;;;;;;;4.35;1.02;;;;;;;1.08;100.00;98990.34;4942592;28;20515;-95
2024/02/12 06:33:12;;;;;;;3.10;0.50;;;;;;;1.07;100.00;98993.06;4944137;28;20047;-96
2024/02/12 06:35:41;;;;;;;2.25;0.40;;;;;;;1.08;100.00;98992.94;4923318;29;20066;-96
2024/02/12 06:38:07;;;;;;;7.47;0.68;;;;;;;0.98;100.00;98998.06;4940638;28;20496;-96
2024/02/12 06:40:37;;;;;;;9.27;0.63;;;;;;;0.99;100.00;99007.50;4941879;28;20865;-95
2024/02/12 06:43:04;;;;;;;4.43;0.50;;;;;;;0.92;100.00;99011.53;4941444;28;20050;-95
2024/02/12 06:45:33;;;;;;;3.72;0.50;;;;;;;0.89;100.00;99011.78;4939041;28;20047;-95
2024/02/12 06:47:59;;;;;;;1.10;0.40;;;;;;;0.84;100.00;99000.88;4938586;29;20445;-96
2024/02/12 06:50:28;;;;;;;3.28;0.40;;;;;;;0.91;100.00;99011.66;4922519;28;20039;-95
2024/02/12 06:53:03;;;;;;;5.80;0.73;;;;;;;0.86;100.00;99014.59;4956737;28;20066;-96
2024/02/12 06:55:29;;;;;;;5.10;0.70;;;;;;;0.91;100.00;99012.47;4925361;28;20054;-96
2024/02/12 06:57:57;;;;;;;2.60;0.70;;;;;;;0.93;100.00;99014.94;4922073;29;20035;-96
2024/02/12 07:00:23;;;;;;;4.10;1.15;;;;;;;0.89;100.00;99018.72;4937674;28;20102;-95
2024/02/12 07:02:49;;;;;;;4.28;1.20;;;;;;;0.83;100.00;99020.84;4926011;28;20035;-95
2024/02/12 07:05:18;;;;;;;2.95;0.82;;;;;;;0.83;100.00;99007.84;4952898;28;20038;-95
2024/02/12 07:07:45;;;;;;;7.97;1.00;;;;;;;0.78;100.00;99015.16;4956237;28;20121;-96
2024/02/12 07:10:12;;;;;;;4.93;0.82;;;;;;;0.73;100.00;99017.31;4938523;28;20042;-96
2024/02/12 07:12:38;;;;;;;7.00;0.60;;;;;;;0.79;100.00;99037.66;4937856;29;20043;-96
2024/02/12 07:15:11;;;;;;;4.55;0.57;;;;;;;0.79;100.00;99024.63;4915398;29;20035;-95
2024/02/12 07:17:37;;;;;;;3.78;0.50;;;;;;;0.68;100.00;99028.06;4921576;29;20035;-96
2024/02/12 07:20:04;;;;;;;2.30;0.57;;;;;;;0.74;100.00;99040.59;4933900;28;20046;-96
2024/02/12 07:22:31;;;;;;;4.78;0.55;;;;;;;0.69;100.00;99036.66;4925134;28;20113;-96
2024/02/12 07:24:57;;;;;;;1.45;0.50;;;;;;;0.75;100.00;99046.59;4941258;28;20493;-96
2024/02/12 07:27:24;;;;;;;1.75;0.38;;;;;;;0.74;100.00;99038.00;4930953;28;20097;-95
2024/02/12 07:29:50;;;;;;;4.88;1.13;;;;;;;0.74;100.00;99047.56;4942892;28;20137;-96
2024/02/12 07:32:16;;;;;;;4.60;0.88;;;;;;;0.78;100.00;99048.16;4956320;28;20035;-96
2024/02/12 07:34:43;;;;;;;8.90;0.70;;;;;;;0.77;100.00;99052.53;4923222;28;20035;-96
2024/02/12 07:37:10;;;;;;;3.70;0.70;;;;;;;0.80;100.00;99057.50;4925012;28;20074;-96
2024/02/12 07:39:39;;;;;;;0.30;0.20;;;;;;;0.81;100.00;99060.94;4956266;28;20043;-96
2024/02/12 07:42:10;;;;;;;3.97;1.33;;;;;;;0.88;100.00;99066.53;4937048;29;20500;-96
2024/02/12 07:44:39;;;;;;;3.88;0.77;;;;;;;0.82;100.00;99065.19;4923538;28;20047;-96
2024/02/12 07:47:05;;;;;;;2.30;0.52;;;;;;;0.79;100.00;99075.81;4945814;28;20049;-96
2024/02/12 07:49:42;;;;;;;1.80;0.60;;;;;;;0.71;100.00;99079.00;4937404;29;20054;-96
2024/02/12 07:52:08;;;;;;;6.72;0.70;;;;;;;0.69;100.00;99086.91;4922894;28;20137;-96
2024/02/12 07:54:36;;;;;;;7.68;1.17;;;;;;;0.71;100.00;99094.59;4918557;28;20152;-96
2024/02/12 07:57:04;;;;;;;5.35;0.57;;;;;;;0.78;100.00;99101.00;4928547;28;20031;-96
2024/02/12 07:59:30;;;;;;;10.18;0.77;;;;;;;0.93;100.00;99106.00;4932999;28;20054;-96
2024/02/12 08:01:56;;;;;;;8.25;0.70;;;;;;;1.04;100.00;99100.81;4956591;28;20129;-96
2024/02/12 08:04:22;;;;;;;1.83;0.45;;;;;;;1.14;100.00;99103.56;4941430;28;20141;-95
2024/02/12 08:06:48;;;;;;;7.00;0.70;;;;;;;1.17;100.00;99099.88;4928096;28;20047;-96
2024/02/12 08:09:17;;;;;;;3.72;0.75;;;;;;;1.22;100.00;99108.19;4939643;28;20046;-96
2024/02/12 08:11:43;;;;;;;5.15;1.02;;;;;;;1.29;100.00;99119.78;4925979;28;20042;-96
2024/02/12 08:14:11;;;;;;;5.45;0.55;;;;;;;1.32;100.00;99111.72;4951868;28;20039;-96
2024/02/12 08:16:37;;;;;;;6.40;0.50;;;;;;;1.36;100.00;99109.72;4927310;28;20039;-96
2024/02/12 08:19:03;;;;;;;2.20;0.65;;;;;;;1.39;100.00;99108.66;4935896;28;20058;-95
2024/02/12 08:21:29;;;;;;;3.03;0.77;;;;;;;1.41;100.00;99109.38;4914528;28;20047;-95
2024/02/12 08:23:55;;;;;;;7.28;0.70;;;;;;;1.43;100.00;99116.13;4924267;28;20038;-95
2024/02/12 08:26:22;;;;;;;4.97;0.50;;;;;;;1.47;100.00;99116.69;4941710;28;20058;-95
2024/02/12 08:28:48;;;;;;;2.03;0.50;;;;;;;1.50;100.00;99119.06;4940442;28;20790;-95
2024/02/12 08:31:20;;;;;;;2.33;0.50;;;;;;;1.63;100.00;99131.97;4930445;28;20117;-95
2024/02/12 08:33:47;;;;;;;1.95;0.60;;;;;;;1.57;100.00;99127.25;4956292;28;20042;-95
2024/02/12 08:36:16;;;;;;;3.00;0.68;;;;;;;1.65;100.00;99131.84;4943369;29;20118;-95
2024/02/12 08:38:42;;;;;;;5.65;0.70;;;;;;;1.65;100.00;99129.25;4922175;29;20040;-95
2024/02/12 08:41:08;;;;;;;3.17;0.60;;;;;;;1.64;100.00;99125.81;4940546;28;20033;-96
2024/02/12 08:43:35;;;;;;;3.08;0.70;;;;;;;1.65;100.00;99131.84;4940829;28;20474;-94
2024/02/12 08:46:01;;;;;;;0.80;0.20;;;;;;;1.71;100.00;99129.59;4940339;28;20035;-94
2024/02/12 08:48:29;;;;;;;4.82;0.47;;;;;;;1.65;100.00;99126.66;4928778;29;20031;-95
2024/02/12 08:50:55;;;;;;;3.03;0.50;;;;;;;1.66;100.00;99134.34;4954375;28;20074;-94
2024/02/12 08:53:21;;;;;;;5.97;0.50;;;;;;;1.66;100.00;99133.50;4941454;28;20031;-95
2024/02/12 08:55:47;;;;;;;5.20;0.50;;;;;;;1.76;100.00;99138.81;4951064;28;20050;-95
2024/02/12 08:58:13;;;;;;;1.85;0.43;;;;;;;1.81;100.00;99145.34;4943914;28;20034;-94
2024/02/12 09:00:39;;;;;;;3.28;0.45;;;;;;;1.84;100.00;99136.47;4932288;28;20045;-94
2024/02/12 09:03:18;;;;;;;2.25;0.30;;;;;;;1.94;100.00;99139.97;4975013;28;20041;-94
2024/02/12 09:05:43;;;;;;;5.72;0.50;;;;;;;2.06;100.00;99148.63;4957008;28;20065;-94
2024/02/12 09:08:09;;;;;;;5.38;0.50;;;;;;;2.12;100.00;99146.50;4950153;28;20026;-93
2024/02/12 09:10:36;;;;;;;3.63;0.55;;;;;;;2.18;100.00;99138.19;4936631;28;20045;-92
2024/02/12 09:13:05;;;;;;;4.38;0.70;;;;;;;2.28;100.00;99138.28;4929513;28;20053;-93
2024/02/12 09:15:31;;;;;;;1.67;0.40;;;;;;;2.36;100.00;99148.91;4943580;28;20750;-93
2024/02/12 09:17:58;;;;;;;4.25;0.73;;;;;;;2.37;100.00;99144.53;4927499;28;20039;-92
2024/02/12 09:20:24;;;;;;;3.25;0.40;;;;;;;2.39;100.00;99148.66;4964521;28;20117;-92
2024/02/12 09:22:51;;;;;;;4.88;1.05;;;;;;;2.48;100.00;99145.31;4928081;28;20047;-93
2024/02/12 09:25:17;;;;;;;0.82;0.30;;;;;;;2.54;100.00;99146.59;4932307;28;20041;-92
2024/02/12 09:27:45;;;;;;;1.30;0.30;;;;;;;2.61;100.00;99146.94;4929767;28;20034;-92
2024/02/12 09:30:11;;;;;;;4.30;0.95;;;;;;;2.71;100.00;99158.25;4944885;28;20113;-93
2024/02/12 09:32:44;;;;;;;4.72;0.52;;;;;;;2.84;100.00;99155.47;4932447;28;20042;-93
2024/02/12 09:35:11;;;;;;;3.67;0.45;;;;;;;2.93;100.00;99153.88;4940615;28;20564;-94
2024/02/12 09:37:39;;;;;;;1.20;0.20;;;;;;;2.99;100.00;99155.19;4922764;29;20553;-93
2024/02/12 09:40:07;;;;;;;4.50;1.20;;;;;;;3.08;100.00;99158.78;4958765;28;20102;-93
2024/02/12 09:42:48;;;;;;;8.43;0.55;;;;;;;3.21;100.00;99158.59;4929912;28;20035;-93
2024/02/12 09:45:16;;;;;;;4.35;0.65;;;;;;;3.29;100.00;99156.19;4941195;28;20026;-93
2024/02/12 09:47:43;;;;;;;3.30;0.50;;;;;;;3.40;100.00;99159.66;4958138;28;20027;-93
2024/02/12 09:50:09;;;;;;;5.40;0.70;;;;;;;3.49;100.00;99161.47;4925233;28;20036;-92
2024/02/12 09:52:36;;;;;;;2.90;0.50;;;;;;;3.55;100.00;99158.34;4950969;28;20076;-92
2024/02/12 09:55:03;;;;;;;4.35;0.70;;;;;;;3.64;100.00;99159.38;4945777;28;20054;-90
2024/02/12 09:57:31;;;;;;;7.18;0.63;;;;;;;3.75;100.00;99162.81;4973593;28;20549;-91
2024/02/12 09:59:57;;;;;;;3.92;0.50;;;;;;;3.78;100.00;99163.41;4958975;28;20046;-93
2024/02/12 10:02:24;;;;;;;3.22;0.93;;;;;;;3.90;100.00;99161.50;4940504;28;20026;-93
2024/02/12 10:05:10;;;;;;;4.65;0.55;;;;;;;3.97;100.00;99170.47;4958872;28;20057;-92
2024/02/12 10:07:56;;;;;;;2.53;0.30;;;;;;;4.04;100.00;99169.94;4960428;28;20034;-90
2024/02/12 10:10:42;;;;;;;3.05;0.45;;;;;;;4.10;100.00;99169.41;4937296;28;20062;-93
2024/02/12 10:13:28;;;;;;;5.15;0.50;;;;;;;4.23;100.00;99171.78;4944963;28;20046;-90
2024/02/12 10:16:13;;;;;;;5.05;1.08;;;;;;;4.29;100.00;99181.72;4945349;28;20039;-92
2024/02/12 10:18:59;;;;;;;1.88;0.47;;;;;;;4.35;100.00;99172.47;4942535;28;20408;-92
2024/02/12 10:21:45;;;;;;;2.67;0.60;;;;;;;4.47;100.00;99176.63;4943619;28;20066;-93
2024/02/12 10:24:31;;;;;;;1.02;0.40;;;;;;;4.58;100.00;99186.16;4947015;28;20105;-92
2024/02/12 10:27:23;;;;;;;4.32;0.57;;;;;;;4.70;100.00;99183.38;4946927;28;20042;-92
2024/02/12 10:30:10;;;;;;;2.92;0.20;;;;;;;4.76;100.00;99193.31;4946306;28;20108;-92
2024/02/12 10:33:03;;;;;;;4.13;0.45;;;;;;;4.71;100.00;99180.63;4954354;28;20043;-92
2024/02/12 10:35:50;;;;;;;2.45;0.43;;;;;;;4.75;100.00;99189.03;4941085;28;20065;-92
2024/02/12 10:38:41;;;;;;;5.47;1.08;;;;;;;4.81;100.00;99196.34;4942735;28;20156;-91
2024/02/12 10:41:32;;;;;;;4.90;0.88;;;;;;;4.88;100.00;99185.31;4932000;28;20062;-91
2024/02/12 10:44:18;;;;;;;4.38;0.50;;;;;;;4.92;100.00;99194.56;4935789;28;20092;-91
2024/02/12 10:47:09;;;;;;;1.92;0.32;;;;;;;4.87;100.00;99181.91;4945492;28;20034;-90
2024/02/12 10:50:07;;;;;;;7.28;0.47;;;;;;;4.94;100.00;99185.59;4948296;28;20440;-91
2024/02/12 10:52:54;;;;;;;4.38;0.70;;;;;;;5.14;100.00;99184.75;4929878;28;20053;-92
2024/02/12 10:55:40;;;;;;;5.05;0.50;;;;;;;5.31;100.00;99186.66;4937019;29;20051;-91
2024/02/12 10:58:06;;;;;;;2.70;0.43;;;;;;;5.41;100.00;99183.19;4906270;28;20058;-90
2024/02/12 11:00:38;;;;;;;2.65;0.22;;;;;;;5.45;100.00;99190.63;4940533;28;20825;-92
2024/02/12 11:03:08;;;;;;;4.05;0.35;;;;;;;5.57;100.00;99187.81;4955950;28;20195;-91
2024/02/12 11:05:38;;;;;;;4.65;0.43;;;;;;;5.68;100.00;99187.66;4923499;28;20038;-90
2024/02/12 11:08:06;;;;;;;6.00;0.80;;;;;;;5.68;100.00;99187.66;4924234;29;20043;-92
2024/02/12 11:10:41;;;;;;;2.85;0.25;;;;;;;5.79;100.00;99185.81;4921336;29;21291;-91
2024/02/12 11:13:15;;;;;;;3.08;0.55;;;;;;;5.81;100.00;99184.69;4912378;28;20126;-93
2024/02/12 11:15:50;;;;;;;3.35;0.60;;;;;;;5.90;100.00;99184.78;4927631;28;20039;-89
2024/02/12 11:18:16;;;;;;;2.97;0.40;;;;;;;5.92;100.00;99180.25;4922945;29;20145;-92
2024/02/12 11:20:49;;;;;;;4.32;0.60;;;;;;;6.01;100.00;99195.09;4902232;28;20058;-92
2024/02/12 11:23:23;;;;;;;2.35;0.32;;;;;;;6.06;100.00;99186.81;4936497;28;20035;-90
2024/02/12 11:25:49;;;;;;;2.05;0.35;;;;;;;6.05;100.00;99193.84;4922405;28;20031;-91
2024/02/12 11:28:16;;;;;;;3.72;0.28;;;;;;;6.25;100.00;99198.16;4927074;29;20038;-92
2024/02/12 11:30:49;;;;;;;5.22;0.73;;;;;;;6.36;100.00;99202.38;4920688;29;20508;-91
2024/02/12 11:33:15;;;;;;;3.65;0.40;;;;;;;6.33;100.00;99200.91;4939009;28;20039;-92
2024/02/12 11:35:41;;;;;;;6.82;0.57;;;;;;;6.38;100.00;99197.81;4941849;28;20038;-91
2024/02/12 11:38:13;;;;;;;4.28;0.45;;;;;;;6.41;100.00;99197.53;4908168;28;20031;-92
2024/02/12 11:40:42;;;;;;;1.85;0.30;;;;;;;6.37;100.00;99206.69;4905391;28;20039;-92
2024/02/12 11:43:18;;;;;;;4.05;0.32;;;;;;;6.31;100.00;99197.59;4922663;28;20059;-91
2024/02/12 11:46:01;;;;;;;4.45;0.60;;;;;;;6.39;100.00;99204.72;4904798;28;20050;-90
2024/02/12 11:48:44;;;;;;;1.40;0.20;;;;;;;6.30;100.00;99209.06;4916587;28;20067;-91
2024/02/12 11:51:19;;;;;;;3.35;0.32;;;;;;;6.25;100.00;99212.13;4949371;28;20047;-90
2024/02/12 11:53:45;;;;;;;2.75;0.40;;;;;;;6.25;100.00;99206.88;4923633;28;20497;-91
2024/02/12 11:56:11;;;;;;;0.50;0.10;;;;;;;6.31;100.00;99208.06;4938604;28;20081;-91
2024/02/12 11:58:37;;;;;;;1.85;0.40;;;;;;;6.32;100.00;99207.13;4969493;28;20065;-91
2024/02/12 12:01:03;;;;;;;2.53;0.50;;;;;;;6.40;100.00;99207.19;4920341;28;20576;-91
2024/02/12 12:03:32;;;;;;;2.75;0.30;;;;;;;6.59;100.00;99215.94;4933001;28;20038;-90